createdAt,value
2018-11-06T00:00:16.902Z,86.24
2018-11-06T00:01:16.914Z,86.17
2018-11-06T00:02:16.890Z,86.24
2018-11-06T00:03:16.869Z,85.62
2018-11-06T00:04:16.895Z,86.03
2018-11-06T00:05:16.845Z,85.86
2018-11-06T00:06:16.868Z,86.07
2018-11-06T00:07:16.823Z,86.17
2018-11-06T00:08:16.813Z,85.86
2018-11-06T00:09:16.888Z,85.76
2018-11-06T00:10:16.799Z,86.07
2018-11-06T00:11:16.817Z,85.97
2018-11-06T00:12:16.786Z,85.25
2018-11-06T00:13:16.770Z,85.97
2018-11-06T00:14:16.750Z,85.46
2018-11-06T00:15:16.754Z,85.55
2018-11-06T00:16:16.740Z,85.46
2018-11-06T00:17:16.763Z,85.25
2018-11-06T00:18:16.707Z,85.60
2018-11-06T00:19:16.697Z,86.11
2018-11-06T00:20:16.696Z,85.90
2018-11-06T00:21:16.681Z,85.49
2018-11-06T00:22:16.706Z,85.08
2018-11-06T00:23:16.658Z,85.70
2018-11-06T00:24:16.645Z,85.08
2018-11-06T00:25:16.632Z,85.08
2018-11-06T00:26:16.623Z,86.00
2018-11-06T00:27:16.619Z,85.86
2018-11-06T00:28:16.634Z,86.32
2018-11-06T00:29:16.588Z,84.88
2018-11-06T00:30:16.591Z,84.74
2018-11-06T00:31:16.564Z,84.63
2018-11-06T00:32:16.564Z,84.74
2018-11-06T00:33:16.573Z,84.88
2018-11-06T00:34:16.610Z,84.74
2018-11-06T00:35:16.528Z,84.16
2018-11-06T00:36:16.509Z,84.42
2018-11-06T00:37:16.497Z,84.63
2018-11-06T00:38:16.509Z,85.39
2018-11-06T00:39:16.480Z,85.39
2018-11-06T00:40:16.468Z,84.88
2018-11-06T00:41:16.464Z,84.77
2018-11-06T00:42:16.450Z,84.98
2018-11-06T00:43:16.471Z,85.46
2018-11-06T00:44:16.436Z,86.11
2018-11-06T00:45:16.422Z,86.11
2018-11-06T00:46:16.398Z,85.60
2018-11-06T00:47:16.400Z,85.76
2018-11-06T00:48:16.405Z,85.90
2018-11-06T00:49:16.372Z,85.80
2018-11-06T00:50:16.376Z,85.86
2018-11-06T00:51:16.357Z,85.86
2018-11-06T00:52:16.350Z,86.11
2018-11-06T00:53:16.334Z,86.11
2018-11-06T00:54:16.337Z,86.42
2018-11-06T00:55:16.310Z,86.07
2018-11-06T00:56:16.305Z,86.27
2018-11-06T00:57:16.288Z,86.42
2018-11-06T00:58:16.270Z,86.27
2018-11-06T00:59:16.290Z,86.38
2018-11-06T01:00:16.325Z,86.48
2018-11-06T01:01:16.235Z,86.68
2018-11-06T01:02:16.247Z,86.27
2018-11-06T01:03:16.220Z,85.66
2018-11-06T01:04:16.241Z,86.27
2018-11-06T01:05:16.199Z,86.68
2018-11-06T01:06:16.181Z,86.58
2018-11-06T01:07:16.201Z,86.38
2018-11-06T01:08:16.166Z,85.97
2018-11-06T01:09:16.251Z,85.66
2018-11-06T01:10:16.141Z,86.24
2018-11-06T01:11:16.129Z,85.76
2018-11-06T01:12:16.122Z,86.27
2018-11-06T01:13:16.105Z,85.97
2018-11-06T01:14:16.101Z,86.17
2018-11-06T01:15:16.109Z,86.17
2018-11-06T01:16:16.076Z,86.03
2018-11-06T01:17:16.070Z,86.33
2018-11-06T01:18:16.055Z,86.75
2018-11-06T01:19:16.098Z,86.13
2018-11-06T01:20:16.054Z,86.54
2018-11-06T01:21:16.022Z,85.97
2018-11-06T01:22:16.020Z,85.52
2018-11-06T01:23:16.008Z,84.94
2018-11-06T01:24:15.993Z,85.35
2018-11-06T01:25:16.008Z,86.17
2018-11-06T01:26:15.973Z,85.49
2018-11-06T01:27:15.958Z,86.00
2018-11-06T01:28:15.951Z,85.90
2018-11-06T01:29:15.953Z,86.00
2018-11-06T01:30:16.005Z,86.00
2018-11-06T01:31:15.941Z,85.18
2018-11-06T01:32:15.905Z,85.39
2018-11-06T01:33:15.912Z,85.18
2018-11-06T01:34:15.886Z,85.08
2018-11-06T01:35:15.875Z,84.71
2018-11-06T01:36:15.886Z,84.47
2018-11-06T01:37:15.846Z,84.67
2018-11-06T01:38:15.843Z,85.12
2018-11-06T01:39:15.821Z,86.00
2018-11-06T01:40:15.813Z,85.63
2018-11-06T01:41:15.833Z,85.18
2018-11-06T01:42:15.803Z,85.08
2018-11-06T01:43:15.782Z,85.39
2018-11-06T01:44:15.778Z,85.49
2018-11-06T01:45:15.758Z,84.77
2018-11-06T01:46:15.798Z,84.98
2018-11-06T01:47:15.765Z,84.47
2018-11-06T01:48:15.763Z,84.36
2018-11-06T01:49:15.730Z,84.26
2018-11-06T01:50:15.719Z,84.36
2018-11-06T01:51:15.748Z,84.91
2018-11-06T01:52:15.710Z,85.12
2018-11-06T01:53:15.680Z,85.12
2018-11-06T01:54:15.664Z,85.63
2018-11-06T01:55:15.668Z,86.35
2018-11-06T01:56:15.648Z,85.84
2018-11-06T01:57:15.661Z,86.25
2018-11-06T01:58:15.632Z,85.26
2018-11-06T01:59:15.610Z,85.22
2018-11-06T02:00:15.608Z,85.84
2018-11-06T02:01:15.586Z,85.43
2018-11-06T02:02:15.576Z,85.33
2018-11-06T02:03:15.596Z,85.22
2018-11-06T02:04:15.551Z,85.22
2018-11-06T02:05:15.543Z,85.12
2018-11-06T02:06:15.560Z,85.49
2018-11-06T02:07:15.517Z,85.22
2018-11-06T02:08:15.526Z,84.71
2018-11-06T02:09:15.514Z,84.81
2018-11-06T02:10:15.486Z,84.91
2018-11-06T02:11:15.473Z,85.33
2018-11-06T02:12:15.468Z,85.98
2018-11-06T02:13:15.471Z,85.98
2018-11-06T02:14:15.460Z,85.94
2018-11-06T02:15:15.439Z,85.98
2018-11-06T02:16:15.423Z,85.53
2018-11-06T02:17:15.416Z,86.15
2018-11-06T02:18:15.449Z,85.74
2018-11-06T02:19:15.413Z,85.84
2018-11-06T02:20:15.381Z,86.15
2018-11-06T02:21:15.390Z,85.74
2018-11-06T02:22:15.379Z,86.15
2018-11-06T02:23:15.377Z,85.84
2018-11-06T02:24:15.333Z,85.53
2018-11-06T02:25:15.333Z,85.94
2018-11-06T02:26:15.322Z,86.15
2018-11-06T02:27:15.303Z,85.22
2018-11-06T02:28:15.314Z,85.22
2018-11-06T02:29:15.311Z,85.12
2018-11-06T02:30:15.278Z,85.74
2018-11-06T02:31:15.267Z,86.05
2018-11-06T02:32:15.273Z,85.74
2018-11-06T02:33:15.279Z,85.84
2018-11-06T02:34:15.244Z,85.84
2018-11-06T02:35:15.216Z,86.15
2018-11-06T02:36:15.225Z,86.05
2018-11-06T02:37:15.192Z,86.05
2018-11-06T02:38:15.191Z,86.05
2018-11-06T02:39:15.215Z,86.46
2018-11-06T02:40:15.169Z,85.84
2018-11-06T02:41:15.149Z,86.15
2018-11-06T02:42:15.181Z,86.35
2018-11-06T02:43:15.126Z,86.56
2018-11-06T02:44:15.133Z,86.66
2018-11-06T02:45:15.135Z,86.46
2018-11-06T02:46:15.102Z,85.94
2018-11-06T02:47:15.094Z,86.25
2018-11-06T02:48:15.076Z,86.15
2018-11-06T02:49:15.065Z,86.05
2018-11-06T02:50:15.068Z,86.46
2018-11-06T02:51:15.040Z,86.35
2018-11-06T02:52:15.054Z,86.87
2018-11-06T02:53:15.027Z,86.56
2018-11-06T02:54:15.018Z,86.25
2018-11-06T02:55:15.063Z,86.66
2018-11-06T02:56:15.008Z,86.56
2018-11-06T02:57:14.973Z,86.56
2018-11-06T02:58:14.969Z,85.78
2018-11-06T02:59:14.956Z,86.05
2018-11-06T03:00:14.954Z,85.84
2018-11-06T03:01:14.960Z,86.05
2018-11-06T03:02:14.944Z,85.94
2018-11-06T03:03:14.915Z,85.74
2018-11-06T03:04:14.905Z,85.94
2018-11-06T03:05:14.901Z,86.46
2018-11-06T03:06:14.903Z,86.05
2018-11-06T03:07:14.864Z,86.35
2018-11-06T03:08:14.856Z,86.46
2018-11-06T03:09:14.843Z,86.46
2018-11-06T03:10:14.868Z,86.46
2018-11-06T03:11:14.886Z,86.46
2018-11-06T03:12:14.819Z,87.07
2018-11-06T03:13:14.801Z,86.87
2018-11-06T03:14:14.797Z,86.35
2018-11-06T03:15:14.786Z,86.35
2018-11-06T03:16:14.769Z,86.46
2018-11-06T03:17:14.780Z,86.25
2018-11-06T03:18:14.742Z,86.66
2018-11-06T03:19:14.733Z,85.74
2018-11-06T03:20:14.739Z,86.15
2018-11-06T03:21:14.719Z,85.94
2018-11-06T03:22:14.750Z,86.35
2018-11-06T03:23:14.705Z,86.15
2018-11-06T03:24:14.694Z,86.35
2018-11-06T03:25:14.678Z,85.94
2018-11-06T03:26:14.656Z,85.94
2018-11-06T03:27:14.674Z,86.05
2018-11-06T03:28:14.633Z,86.05
2018-11-06T03:29:14.652Z,86.15
2018-11-06T03:30:14.632Z,84.71
2018-11-06T03:31:14.611Z,84.61
2018-11-06T03:32:14.631Z,84.50
2018-11-06T03:33:14.580Z,84.44
2018-11-06T03:34:14.587Z,84.23
2018-11-06T03:35:14.578Z,84.58
2018-11-06T03:36:14.548Z,85.06
2018-11-06T03:37:14.554Z,85.92
2018-11-06T03:38:14.568Z,85.20
2018-11-06T03:39:14.517Z,85.71
2018-11-06T03:40:14.506Z,85.82
2018-11-06T03:41:14.507Z,86.02
2018-11-06T03:42:14.489Z,86.02
2018-11-06T03:43:14.496Z,85.92
2018-11-06T03:44:14.472Z,86.33
2018-11-06T03:45:14.462Z,86.43
2018-11-06T03:46:14.475Z,86.37
2018-11-06T03:47:14.453Z,86.88
2018-11-06T03:48:14.498Z,87.09
2018-11-06T03:49:14.413Z,87.09
2018-11-06T03:50:14.412Z,87.09
2018-11-06T03:51:14.382Z,86.88
2018-11-06T03:52:14.388Z,87.09
2018-11-06T03:53:14.384Z,86.68
2018-11-06T03:54:14.398Z,86.88
2018-11-06T03:55:14.344Z,87.09
2018-11-06T03:56:14.334Z,86.79
2018-11-06T03:57:14.317Z,86.88
2018-11-06T03:58:14.322Z,87.40
2018-11-06T03:59:14.316Z,87.09
2018-11-06T04:00:14.297Z,86.99
2018-11-06T04:01:14.285Z,86.68
2018-11-06T04:02:14.274Z,86.64
2018-11-06T04:03:14.264Z,86.47
2018-11-06T04:04:14.291Z,86.43
2018-11-06T04:05:14.235Z,86.06
2018-11-06T04:06:14.229Z,86.16
2018-11-06T04:07:14.218Z,86.43
2018-11-06T04:08:14.208Z,85.30
2018-11-06T04:09:14.218Z,85.20
2018-11-06T04:10:14.200Z,84.72
2018-11-06T04:11:14.167Z,84.93
2018-11-06T04:12:14.155Z,84.79
2018-11-06T04:13:14.150Z,84.72
2018-11-06T04:14:14.156Z,84.93
2018-11-06T04:15:14.162Z,84.93
2018-11-06T04:16:14.127Z,85.24
2018-11-06T04:17:14.102Z,85.96
2018-11-06T04:18:14.088Z,86.16
2018-11-06T04:19:14.078Z,86.58
2018-11-06T04:20:14.100Z,86.27
2018-11-06T04:21:14.064Z,86.27
2018-11-06T04:22:14.044Z,85.24
2018-11-06T04:23:14.032Z,84.99
2018-11-06T04:24:14.032Z,84.72
2018-11-06T04:25:14.024Z,85.24
2018-11-06T04:26:14.026Z,85.20
2018-11-06T04:27:13.996Z,85.65
2018-11-06T04:28:13.986Z,85.75
2018-11-06T04:29:13.964Z,85.55
2018-11-06T04:30:13.978Z,85.20
2018-11-06T04:31:13.978Z,85.41
2018-11-06T04:32:13.946Z,85.44
2018-11-06T04:33:13.946Z,86.23
2018-11-06T04:34:13.927Z,85.51
2018-11-06T04:35:13.907Z,85.75
2018-11-06T04:36:13.952Z,85.96
2018-11-06T04:37:13.882Z,85.14
2018-11-06T04:38:13.872Z,84.93
2018-11-06T04:39:13.878Z,85.03
2018-11-06T04:40:13.858Z,85.34
2018-11-06T04:41:13.838Z,86.27
2018-11-06T04:42:13.848Z,86.00
2018-11-06T04:43:13.812Z,86.10
2018-11-06T04:44:13.803Z,86.06
2018-11-06T04:45:13.819Z,86.06
2018-11-06T04:46:13.778Z,86.27
2018-11-06T04:47:13.809Z,86.68
2018-11-06T04:48:13.766Z,86.58
2018-11-06T04:49:13.759Z,86.88
2018-11-06T04:50:13.740Z,86.58
2018-11-06T04:51:13.741Z,86.16
2018-11-06T04:52:13.745Z,86.47
2018-11-06T04:53:13.704Z,86.58
2018-11-06T04:54:13.708Z,86.58
2018-11-06T04:55:13.687Z,86.93
2018-11-06T04:56:13.676Z,86.58
2018-11-06T04:57:13.716Z,86.88
2018-11-06T04:58:13.672Z,86.68
2018-11-06T04:59:13.645Z,86.88
2018-11-06T05:00:13.637Z,87.19
2018-11-06T05:01:13.638Z,87.40
2018-11-06T05:02:13.756Z,86.99
2018-11-06T05:03:13.625Z,87.30
2018-11-06T05:04:13.581Z,87.51
2018-11-06T05:05:13.575Z,87.09
2018-11-06T05:06:13.568Z,87.19
2018-11-06T05:07:13.558Z,87.51
2018-11-06T05:08:13.580Z,87.71
2018-11-06T05:09:13.544Z,87.67
2018-11-06T05:10:13.513Z,87.92
2018-11-06T05:11:13.503Z,87.81
2018-11-06T05:12:13.508Z,87.77
2018-11-06T05:13:13.512Z,88.08
2018-11-06T05:14:13.568Z,87.81
2018-11-06T05:15:13.477Z,87.51
2018-11-06T05:16:13.456Z,87.87
2018-11-06T05:17:13.437Z,88.08
2018-11-06T05:18:13.444Z,87.87
2018-11-06T05:19:13.433Z,87.77
2018-11-06T05:20:13.454Z,87.77
2018-11-06T05:21:13.397Z,88.80
2018-11-06T05:22:13.385Z,88.90
2018-11-06T05:23:13.382Z,88.86
2018-11-06T05:24:13.389Z,87.73
2018-11-06T05:25:13.392Z,87.67
2018-11-06T05:26:13.344Z,86.70
2018-11-06T05:27:13.340Z,86.40
2018-11-06T05:28:13.317Z,86.19
2018-11-06T05:29:13.337Z,85.98
2018-11-06T05:30:13.337Z,85.98
2018-11-06T05:31:13.288Z,85.68
2018-11-06T05:32:13.279Z,85.61
2018-11-06T05:33:13.282Z,86.74
2018-11-06T05:34:13.273Z,86.95
2018-11-06T05:35:13.268Z,86.54
2018-11-06T05:36:13.241Z,87.26
2018-11-06T05:37:13.223Z,86.64
2018-11-06T05:38:13.218Z,86.23
2018-11-06T05:39:13.297Z,86.06
2018-11-06T05:40:13.206Z,86.54
2018-11-06T05:41:13.208Z,86.64
2018-11-06T05:42:13.190Z,86.43
2018-11-06T05:43:13.181Z,85.65
2018-11-06T05:44:13.147Z,84.42
2018-11-06T05:45:13.164Z,84.31
2018-11-06T05:46:13.124Z,84.52
2018-11-06T05:47:13.129Z,84.00
2018-11-06T05:48:13.148Z,84.11
2018-11-06T05:49:13.086Z,84.45
2018-11-06T05:50:13.080Z,84.62
2018-11-06T05:51:13.083Z,84.11
2018-11-06T05:52:13.061Z,84.62
2018-11-06T05:53:13.117Z,84.62
2018-11-06T05:54:13.046Z,85.44
2018-11-06T05:55:13.047Z,85.55
2018-11-06T05:56:13.048Z,86.16
2018-11-06T05:57:13.002Z,86.68
2018-11-06T05:58:12.993Z,87.19
2018-11-06T05:59:12.989Z,87.81
2018-11-06T06:00:12.989Z,89.11
2018-11-06T06:01:12.989Z,87.92
2018-11-06T06:02:12.988Z,88.08
2018-11-06T06:03:12.939Z,87.67
2018-11-06T06:04:12.925Z,87.15
2018-11-06T06:05:12.958Z,86.88
2018-11-06T06:06:12.918Z,86.79
2018-11-06T06:07:12.951Z,85.24
2018-11-06T06:08:12.881Z,85.14
2018-11-06T06:09:12.884Z,85.14
2018-11-06T06:10:12.869Z,84.72
2018-11-06T06:11:12.885Z,85.03
2018-11-06T06:12:12.863Z,84.62
2018-11-06T06:13:12.833Z,84.93
2018-11-06T06:14:12.859Z,85.14
2018-11-06T06:15:12.804Z,86.06
2018-11-06T06:16:12.808Z,85.96
2018-11-06T06:17:12.870Z,85.96
2018-11-06T06:18:12.783Z,86.47
2018-11-06T06:19:12.763Z,86.79
2018-11-06T06:20:12.756Z,86.68
2018-11-06T06:21:12.747Z,86.85
2018-11-06T06:22:12.732Z,87.09
2018-11-06T06:23:12.744Z,87.57
2018-11-06T06:24:12.710Z,87.77
2018-11-06T06:25:12.697Z,87.98
2018-11-06T06:26:12.688Z,87.67
2018-11-06T06:27:12.680Z,87.98
2018-11-06T06:28:12.737Z,88.39
2018-11-06T06:29:12.665Z,87.84
2018-11-06T06:30:12.656Z,88.04
2018-11-06T06:31:12.635Z,86.70
2018-11-06T06:32:12.619Z,86.40
2018-11-06T06:33:12.655Z,86.60
2018-11-06T06:34:12.620Z,86.80
2018-11-06T06:35:12.648Z,86.50
2018-11-06T06:36:12.578Z,86.80
2018-11-06T06:37:12.598Z,86.19
2018-11-06T06:38:12.587Z,86.50
2018-11-06T06:39:12.567Z,86.19
2018-11-06T06:40:12.585Z,85.88
2018-11-06T06:41:12.545Z,86.46
2018-11-06T06:42:12.507Z,86.70
2018-11-06T06:43:12.521Z,86.29
2018-11-06T06:44:12.508Z,86.66
2018-11-06T06:45:12.498Z,86.56
2018-11-06T06:46:12.467Z,86.35
2018-11-06T06:47:12.463Z,86.91
2018-11-06T06:48:12.443Z,87.38
2018-11-06T06:49:12.477Z,86.77
2018-11-06T06:50:12.420Z,86.97
2018-11-06T06:51:12.410Z,86.97
2018-11-06T06:52:12.406Z,86.77
2018-11-06T06:53:12.397Z,85.94
2018-11-06T06:54:12.594Z,85.94
2018-11-06T06:55:12.462Z,86.35
2018-11-06T06:56:12.351Z,86.60
2018-11-06T06:57:12.343Z,86.50
2018-11-06T06:58:12.334Z,86.87
2018-11-06T06:59:12.331Z,86.35
2018-11-06T07:00:12.338Z,86.77
2018-11-06T07:01:12.302Z,86.97
2018-11-06T07:02:12.306Z,87.59
2018-11-06T07:03:12.336Z,87.79
2018-11-06T07:04:12.267Z,87.90
2018-11-06T07:05:12.272Z,87.90
2018-11-06T07:06:12.272Z,87.65
2018-11-06T07:07:12.233Z,87.96
2018-11-06T07:08:12.229Z,87.85
2018-11-06T07:09:12.220Z,87.45
2018-11-06T07:10:12.260Z,87.24
2018-11-06T07:11:12.195Z,87.34
2018-11-06T07:12:12.184Z,87.45
2018-11-06T07:13:12.172Z,87.51
2018-11-06T07:14:12.182Z,87.51
2018-11-06T07:15:12.184Z,87.40
2018-11-06T07:16:12.153Z,86.99
2018-11-06T07:17:12.135Z,86.68
2018-11-06T07:18:12.125Z,86.68
2018-11-06T07:19:12.104Z,86.79
2018-11-06T07:20:12.091Z,86.95
2018-11-06T07:21:12.104Z,86.65
2018-11-06T07:22:12.072Z,86.75
2018-11-06T07:23:12.081Z,86.44
2018-11-06T07:24:12.079Z,86.54
2018-11-06T07:25:12.040Z,86.33
2018-11-06T07:26:12.057Z,86.85
2018-11-06T07:27:12.017Z,86.85
2018-11-06T07:28:12.012Z,86.13
2018-11-06T07:29:11.996Z,86.50
2018-11-06T07:30:12.013Z,86.60
2018-11-06T07:31:11.993Z,86.50
2018-11-06T07:32:11.997Z,86.40
2018-11-06T07:33:11.956Z,86.50
2018-11-06T07:34:11.958Z,86.19
2018-11-06T07:35:12.015Z,86.81
2018-11-06T07:36:11.942Z,86.30
2018-11-06T07:37:11.934Z,86.71
2018-11-06T07:38:11.898Z,86.66
2018-11-06T07:39:11.895Z,86.66
2018-11-06T07:40:11.895Z,86.36
2018-11-06T07:41:12.044Z,86.25
2018-11-06T07:42:11.905Z,86.25
2018-11-06T07:43:11.840Z,86.42
2018-11-06T07:44:11.832Z,86.15
2018-11-06T07:45:11.839Z,85.71
2018-11-06T07:46:11.827Z,86.52
2018-11-06T07:47:11.802Z,86.01
2018-11-06T07:48:11.807Z,85.60
2018-11-06T07:49:11.797Z,86.38
2018-11-06T07:50:11.806Z,85.91
2018-11-06T07:51:11.763Z,85.46
2018-11-06T07:52:11.749Z,85.77
2018-11-06T07:53:11.768Z,85.15
2018-11-06T07:54:11.724Z,84.84
2018-11-06T07:55:11.726Z,85.05
2018-11-06T07:56:11.840Z,85.01
2018-11-06T07:57:11.704Z,85.05
2018-11-06T07:58:11.714Z,85.01
2018-11-06T07:59:11.704Z,84.95
2018-11-06T08:00:11.663Z,84.80
2018-11-06T08:01:11.652Z,84.80
2018-11-06T08:02:11.670Z,84.60
2018-11-06T08:03:11.629Z,84.50
2018-11-06T08:04:11.735Z,84.46
2018-11-06T08:05:11.602Z,84.36
2018-11-06T08:06:11.665Z,84.29
2018-11-06T08:07:11.586Z,83.95
2018-11-06T08:08:11.585Z,84.05
2018-11-06T08:09:11.597Z,84.15
2018-11-06T08:10:11.558Z,83.84
2018-11-06T08:11:11.548Z,84.05
2018-11-06T08:12:11.563Z,83.50
2018-11-06T08:13:11.534Z,83.64
2018-11-06T08:14:11.559Z,83.50
2018-11-06T08:15:11.601Z,83.50
2018-11-06T08:16:11.483Z,83.70
2018-11-06T08:17:11.500Z,82.57
2018-11-06T08:18:11.461Z,82.89
2018-11-06T08:19:11.463Z,82.48
2018-11-06T08:20:11.469Z,82.34
2018-11-06T08:21:11.432Z,82.13
2018-11-06T08:22:11.416Z,82.34
2018-11-06T08:23:11.421Z,82.03
2018-11-06T08:24:11.398Z,81.93
2018-11-06T08:25:11.425Z,81.93
2018-11-06T08:26:11.410Z,82.50
2018-11-06T08:27:11.400Z,82.40
2018-11-06T08:28:11.353Z,81.38
2018-11-06T08:29:11.371Z,82.20
2018-11-06T08:30:11.395Z,82.50
2018-11-06T08:31:11.429Z,82.29
2018-11-06T08:32:11.727Z,82.15
2018-11-06T08:33:11.300Z,82.15
2018-11-06T08:34:11.282Z,81.54
2018-11-06T08:35:11.310Z,81.95
2018-11-06T08:36:11.286Z,81.44
2018-11-06T08:37:11.357Z,81.03
2018-11-06T08:38:11.241Z,80.62
2018-11-06T08:39:11.230Z,80.83
2018-11-06T08:40:11.222Z,80.52
2018-11-06T08:41:11.235Z,80.52
2018-11-06T08:42:11.216Z,80.28
2018-11-06T08:43:11.186Z,80.18
2018-11-06T08:44:11.183Z,80.07
2018-11-06T08:45:11.161Z,80.18
2018-11-06T08:46:11.202Z,79.87
2018-11-06T08:47:11.173Z,79.66
2018-11-06T08:48:11.189Z,79.25
2018-11-06T08:49:11.133Z,79.36
2018-11-06T08:50:11.119Z,79.46
2018-11-06T08:51:11.114Z,79.32
2018-11-06T08:52:11.119Z,79.16
2018-11-06T08:53:11.093Z,79.43
2018-11-06T08:54:11.071Z,79.32
2018-11-06T08:55:11.121Z,78.91
2018-11-06T08:56:11.050Z,79.02
2018-11-06T08:57:20.125Z,78.91
2018-11-06T08:58:11.381Z,79.02
2018-11-06T08:59:11.409Z,78.98
2018-11-06T09:00:11.436Z,78.81
2018-11-06T09:01:11.177Z,79.22
2018-11-06T09:02:11.201Z,78.91
2018-11-06T09:03:10.993Z,78.91
2018-11-06T09:04:11.051Z,78.47
2018-11-06T09:05:11.021Z,78.47
2018-11-06T09:06:11.131Z,77.96
2018-11-06T09:07:11.069Z,78.16
2018-11-06T09:08:11.036Z,78.16
2018-11-06T09:09:10.917Z,78.27
2018-11-06T09:10:10.965Z,77.96
2018-11-06T09:11:10.976Z,77.96
2018-11-06T09:12:11.040Z,77.92
2018-11-06T09:13:10.973Z,78.16
2018-11-06T09:14:10.922Z,77.92
2018-11-06T09:15:10.944Z,77.62
2018-11-06T09:16:10.965Z,77.72
2018-11-06T09:17:10.945Z,77.72
2018-11-06T09:18:10.982Z,77.62
2018-11-06T09:19:10.958Z,77.11
2018-11-06T09:20:10.937Z,77.51
2018-11-06T09:21:11.016Z,77.21
2018-11-06T09:22:10.900Z,76.70
2018-11-06T09:23:10.886Z,76.19
2018-11-06T09:24:10.813Z,76.90
2018-11-06T09:25:10.828Z,76.35
2018-11-06T09:26:10.847Z,76.50
2018-11-06T09:27:10.792Z,76.15
2018-11-06T09:28:10.757Z,76.66
2018-11-06T09:29:10.816Z,76.15
2018-11-06T09:30:10.770Z,76.46
2018-11-06T09:31:10.721Z,75.95
2018-11-06T09:32:10.685Z,75.51
2018-11-06T09:33:10.728Z,75.92
2018-11-06T09:34:10.767Z,75.71
2018-11-06T09:35:10.693Z,75.81
2018-11-06T09:36:10.825Z,76.42
2018-11-06T09:37:10.649Z,75.40
2018-11-06T09:38:10.860Z,75.71
2018-11-06T09:39:10.708Z,75.71
2018-11-06T09:40:10.613Z,75.20
2018-11-06T09:41:10.670Z,74.99
2018-11-06T09:42:10.607Z,75.06
2018-11-06T09:43:10.583Z,73.94
2018-11-06T09:44:10.630Z,75.06
2018-11-06T09:45:10.698Z,75.06
2018-11-06T09:46:10.579Z,74.25
2018-11-06T09:47:10.568Z,74.04
2018-11-06T09:48:10.579Z,73.94
2018-11-06T09:49:10.524Z,74.01
2018-11-06T09:50:10.570Z,73.30
2018-11-06T09:51:10.504Z,73.80
2018-11-06T09:52:10.524Z,73.71
2018-11-06T09:53:10.490Z,73.30
2018-11-06T09:54:10.558Z,73.71
2018-11-06T09:55:10.594Z,73.19
2018-11-06T09:56:10.569Z,73.57
2018-11-06T09:57:10.466Z,73.47
2018-11-06T09:58:10.410Z,73.57
2018-11-06T09:59:10.575Z,73.06
2018-11-06T10:00:10.513Z,73.26
2018-11-06T10:01:10.539Z,72.86
2018-11-06T10:02:10.449Z,72.75
2018-11-06T10:03:11.041Z,72.14
2018-11-06T10:04:10.343Z,71.84
2018-11-06T10:05:10.458Z,72.04
2018-11-06T10:06:10.384Z,71.84
2018-11-06T10:07:10.551Z,72.01
2018-11-06T10:08:10.417Z,72.11
2018-11-06T10:09:10.340Z,71.60
2018-11-06T10:10:10.365Z,71.70
2018-11-06T10:11:11.534Z,71.30
2018-11-06T10:12:10.493Z,71.26
2018-11-06T10:13:11.048Z,71.80
2018-11-06T10:14:10.364Z,71.40
2018-11-06T10:15:10.282Z,70.96
2018-11-06T10:16:10.283Z,70.75
2018-11-06T10:17:10.226Z,71.16
2018-11-06T10:18:10.216Z,70.75
2018-11-06T10:19:10.277Z,70.65
2018-11-06T10:20:10.272Z,70.55
2018-11-06T10:21:10.325Z,70.55
2018-11-06T10:22:10.158Z,71.33
2018-11-06T10:23:10.338Z,70.75
2018-11-06T10:24:10.147Z,71.43
2018-11-06T10:25:10.182Z,71.33
2018-11-06T10:26:10.155Z,71.12
2018-11-06T10:27:10.127Z,70.82
2018-11-06T10:28:10.072Z,70.11
2018-11-06T10:29:10.112Z,70.62
2018-11-06T10:30:10.133Z,70.01
2018-11-06T10:31:10.120Z,69.50
2018-11-06T10:32:10.078Z,69.60
2018-11-06T10:33:10.150Z,70.11
2018-11-06T10:34:10.107Z,69.91
2018-11-06T10:35:10.231Z,70.01
2018-11-06T10:36:10.120Z,69.60
2018-11-06T10:37:10.282Z,69.70
2018-11-06T10:38:10.041Z,69.87
2018-11-06T10:39:10.073Z,69.37
2018-11-06T10:40:16.639Z,68.86
2018-11-06T10:41:12.494Z,69.67
2018-11-06T10:42:19.887Z,69.37
2018-11-06T10:43:23.430Z,69.57
2018-11-06T10:44:10.477Z,69.26
2018-11-06T10:45:10.294Z,69.57
2018-11-06T10:46:11.021Z,69.13
2018-11-06T10:47:10.034Z,69.17
2018-11-06T10:48:10.824Z,69.34
2018-11-06T10:49:13.047Z,68.83
2018-11-06T10:50:21.174Z,68.83
2018-11-06T10:51:11.457Z,68.22
2018-11-06T10:52:12.180Z,68.52
2018-11-06T10:53:10.131Z,67.71
2018-11-06T10:54:16.860Z,68.22
2018-11-06T10:55:11.110Z,68.42
2018-11-06T10:56:10.737Z,68.32
2018-11-06T10:57:11.722Z,68.22
2018-11-06T10:58:09.849Z,67.91
2018-11-06T10:59:12.182Z,67.78
2018-11-06T11:00:10.056Z,67.68
2018-11-06T11:01:09.794Z,67.78
2018-11-06T11:02:10.564Z,67.81
2018-11-06T11:03:09.966Z,67.07
2018-11-06T11:04:09.772Z,65.99
2018-11-06T11:05:09.779Z,66.56
2018-11-06T11:06:09.663Z,67.27
2018-11-06T11:07:09.612Z,66.46
2018-11-06T11:08:09.675Z,66.77
2018-11-06T11:09:09.678Z,66.26
2018-11-06T11:10:09.934Z,65.34
2018-11-06T11:11:09.647Z,66.36
2018-11-06T11:12:09.737Z,66.66
2018-11-06T11:13:09.736Z,66.56
2018-11-06T11:14:09.654Z,67.07
2018-11-06T11:15:10.305Z,67.03
2018-11-06T11:16:09.642Z,65.42
2018-11-06T11:17:09.560Z,65.85
2018-11-06T11:18:10.593Z,65.92
2018-11-06T11:19:09.639Z,65.21
2018-11-06T11:20:12.783Z,65.52
2018-11-06T11:21:09.575Z,64.50
2018-11-06T11:22:09.538Z,65.21
2018-11-06T11:23:09.538Z,66.13
2018-11-06T11:24:09.516Z,65.01
2018-11-06T11:25:09.537Z,65.82
2018-11-06T11:26:09.621Z,66.23
2018-11-06T11:27:09.575Z,65.31
2018-11-06T11:28:09.480Z,66.02
2018-11-06T11:29:10.018Z,65.89
2018-11-06T11:30:09.400Z,64.98
2018-11-06T11:31:09.548Z,65.69
2018-11-06T11:32:09.389Z,65.79
2018-11-06T11:33:09.516Z,65.69
2018-11-06T11:34:09.417Z,64.27
2018-11-06T11:35:09.456Z,64.47
2018-11-06T11:36:09.389Z,64.98
2018-11-06T11:37:09.410Z,64.67
2018-11-06T11:38:09.355Z,64.27
2018-11-06T11:39:09.336Z,64.88
2018-11-06T11:40:09.346Z,65.28
2018-11-06T11:41:09.422Z,65.05
2018-11-06T11:42:09.344Z,64.88
2018-11-06T11:43:09.572Z,65.28
2018-11-06T11:44:09.253Z,64.47
2018-11-06T11:45:09.292Z,64.37
2018-11-06T11:46:09.292Z,64.27
2018-11-06T11:47:09.847Z,64.47
2018-11-06T11:48:09.252Z,65.39
2018-11-06T11:49:09.267Z,65.69
2018-11-06T11:50:09.313Z,65.15
2018-11-06T11:51:09.261Z,65.08
2018-11-06T11:52:09.227Z,66.09
2018-11-06T11:53:09.245Z,64.95
2018-11-06T11:54:09.135Z,64.54
2018-11-06T11:55:09.160Z,64.54
2018-11-06T11:56:09.158Z,64.64
2018-11-06T11:57:09.311Z,64.54
2018-11-06T11:58:09.137Z,64.54
2018-11-06T11:59:09.132Z,64.44
2018-11-06T12:00:09.159Z,63.83
2018-11-06T12:01:09.094Z,64.54
2018-11-06T12:02:09.157Z,63.81
2018-11-06T12:03:09.167Z,64.64
2018-11-06T12:04:09.049Z,64.11
2018-11-06T12:05:09.290Z,64.64
2018-11-06T12:06:09.281Z,63.60
2018-11-06T12:07:09.083Z,64.01
2018-11-06T12:08:08.996Z,64.11
2018-11-06T12:09:09.584Z,62.49
2018-11-06T12:10:08.983Z,62.38
2018-11-06T12:11:10.136Z,62.59
2018-11-06T12:12:09.003Z,63.50
2018-11-06T12:13:09.182Z,62.38
2018-11-06T12:14:08.971Z,62.38
2018-11-06T12:15:08.965Z,62.35
2018-11-06T12:16:08.967Z,62.56
2018-11-06T12:17:08.947Z,62.26
2018-11-06T12:18:08.899Z,61.95
2018-11-06T12:19:09.061Z,61.85
2018-11-06T12:20:08.917Z,62.35
2018-11-06T12:21:08.825Z,62.56
2018-11-06T12:22:08.850Z,61.44
2018-11-06T12:23:08.806Z,61.35
2018-11-06T12:24:08.941Z,62.05
2018-11-06T12:25:09.088Z,62.43
2018-11-06T12:26:08.803Z,62.56
2018-11-06T12:27:08.831Z,61.04
2018-11-06T12:28:08.813Z,61.11
2018-11-06T12:29:09.460Z,62.33
2018-11-06T12:30:08.825Z,61.04
2018-11-06T12:31:08.739Z,61.41
2018-11-06T12:32:08.711Z,61.14
2018-11-06T12:33:08.709Z,60.63
2018-11-06T12:34:08.710Z,61.52
2018-11-06T12:35:08.765Z,61.32
2018-11-06T12:36:08.846Z,61.11
2018-11-06T12:37:08.768Z,61.21
2018-11-06T12:38:08.698Z,61.32
2018-11-06T12:39:08.724Z,61.01
2018-11-06T12:40:08.736Z,61.01
2018-11-06T12:41:08.602Z,60.98
2018-11-06T12:42:08.649Z,61.01
2018-11-06T12:43:08.746Z,60.20
2018-11-06T12:44:08.805Z,60.30
2018-11-06T12:45:08.652Z,61.11
2018-11-06T12:46:08.683Z,60.81
2018-11-06T12:47:08.622Z,60.10
2018-11-06T12:48:08.585Z,60.41
2018-11-06T12:49:08.596Z,60.41
2018-11-06T12:50:08.564Z,60.10
2018-11-06T12:51:08.522Z,60.20
2018-11-06T12:52:08.472Z,60.38